createdAt,value
2017-05-15T00:01:16.168Z,3.35
2017-05-15T00:03:44.519Z,5.02
2017-05-15T00:06:13.885Z,4.10
2017-05-15T00:08:42.271Z,3.57
2017-05-15T00:11:10.768Z,3.48
2017-05-15T00:13:38.448Z,4.18
2017-05-15T00:16:07.861Z,3.60
2017-05-15T00:18:35.609Z,3.42
2017-05-15T00:21:03.423Z,5.83
2017-05-15T00:23:31.589Z,3.45
2017-05-15T00:26:00.437Z,5.03
2017-05-15T00:28:33.079Z,4.20
2017-05-15T00:31:23.673Z,3.72
2017-05-15T00:34:00.011Z,3.22
2017-05-15T00:36:28.845Z,3.93
2017-05-15T00:38:56.615Z,3.98
2017-05-15T00:41:24.483Z,5.28
2017-05-15T00:43:52.060Z,4.12
2017-05-15T00:46:20.084Z,3.75
2017-05-15T01:06:30.742Z,5.92
2017-05-15T01:17:55.132Z,4.70
2017-05-15T01:26:26.747Z,4.17
2017-05-15T01:49:23.471Z,4.75
2017-05-15T01:51:52.633Z,4.28
2017-05-15T02:00:09.602Z,5.18
2017-05-15T02:02:37.991Z,4.77
2017-05-15T02:05:06.963Z,5.30
2017-05-15T02:07:35.271Z,6.13
2017-05-15T02:10:03.572Z,5.22
2017-05-15T02:12:31.972Z,5.45
2017-05-15T02:14:59.867Z,5.77
2017-05-15T02:17:28.647Z,4.50
2017-05-15T02:19:56.217Z,5.50
2017-05-15T02:22:24.566Z,7.48
2017-05-15T02:24:53.886Z,5.10
2017-05-15T02:27:23.115Z,5.73
2017-05-15T02:29:51.292Z,9.65
2017-05-15T02:32:19.089Z,4.47
2017-05-15T02:34:46.780Z,4.55
2017-05-15T02:37:14.491Z,6.22
2017-05-15T02:39:42.268Z,5.00
2017-05-15T02:42:10.011Z,5.18
2017-05-15T02:44:37.616Z,4.40
2017-05-15T02:47:05.416Z,5.50
2017-05-15T02:49:33.178Z,5.90
2017-05-15T02:52:00.943Z,4.45
2017-05-15T02:54:29.362Z,4.20
2017-05-15T02:56:56.940Z,4.00
2017-05-15T02:59:24.925Z,6.22
2017-05-15T03:01:52.587Z,4.10
2017-05-15T03:04:20.439Z,4.25
2017-05-15T03:06:51.332Z,5.32
2017-05-15T03:09:21.374Z,4.58
2017-05-15T03:11:50.104Z,4.07
2017-05-15T03:14:18.300Z,4.27
2017-05-15T03:16:46.249Z,5.45
2017-05-15T03:19:14.531Z,3.88
2017-05-15T03:21:53.742Z,7.80
2017-05-15T03:24:22.783Z,4.70
2017-05-15T03:27:21.096Z,5.40
2017-05-15T03:29:56.108Z,4.72
2017-05-15T03:32:26.918Z,5.10
2017-05-15T03:34:57.631Z,4.18
2017-05-15T03:37:25.594Z,5.02
2017-05-15T03:39:57.847Z,4.17
2017-05-15T03:42:33.607Z,4.12
2017-05-15T03:48:34.164Z,4.35
2017-05-15T03:59:45.839Z,5.57
2017-05-15T04:02:18.224Z,6.57
2017-05-15T04:04:50.098Z,4.77
2017-05-15T05:42:21.089Z,9.58
2017-05-15T05:47:23.496Z,9.07
2017-05-15T05:49:54.814Z,10.07
2017-05-15T05:52:22.927Z,8.83
2017-05-15T05:54:53.041Z,9.12
2017-05-15T05:57:37.561Z,9.03
2017-05-15T06:03:21.248Z,10.45
2017-05-15T06:09:09.415Z,9.93
2017-05-15T06:17:54.131Z,9.57
2017-05-15T06:20:23.104Z,10.90
2017-05-15T06:23:22.576Z,8.98
2017-05-15T06:26:07.942Z,8.82
2017-05-15T06:28:39.733Z,8.25
2017-05-15T06:31:09.434Z,8.62
2017-05-15T06:33:37.934Z,9.53
2017-05-15T06:36:05.756Z,9.70
2017-05-15T06:38:51.217Z,9.83
2017-05-15T06:41:32.904Z,13.77
2017-05-15T06:44:00.954Z,9.65
2017-05-15T06:46:28.918Z,9.45
2017-05-15T06:48:56.818Z,10.38
2017-05-15T06:51:24.726Z,9.12
2017-05-15T06:53:54.314Z,9.08
2017-05-15T06:56:22.789Z,11.72
2017-05-15T06:58:50.682Z,10.77
2017-05-15T07:01:18.483Z,10.78
2017-05-15T07:03:46.316Z,12.55
2017-05-15T07:06:14.555Z,12.10
2017-05-15T07:08:42.824Z,12.43
2017-05-15T07:11:10.610Z,10.97
2017-05-15T07:13:38.384Z,12.25
2017-05-15T07:16:06.026Z,13.95
2017-05-15T07:18:33.979Z,12.38
2017-05-15T07:21:01.619Z,14.60
2017-05-15T07:23:30.015Z,11.47
2017-05-15T07:25:57.494Z,12.57
2017-05-15T07:28:25.022Z,12.93
2017-05-15T07:30:52.494Z,11.83
2017-05-15T07:33:19.939Z,12.37
2017-05-15T07:35:47.467Z,11.32
2017-05-15T07:38:15.303Z,12.83
2017-05-15T07:40:42.814Z,14.13
2017-05-15T07:43:10.399Z,11.45
2017-05-15T07:45:37.842Z,12.73
2017-05-15T07:48:11.503Z,10.50
2017-05-15T07:50:39.163Z,12.57
2017-05-15T07:53:06.823Z,18.67
2017-05-15T07:55:34.403Z,17.55
2017-05-15T07:58:02.171Z,17.32
2017-05-15T08:00:30.350Z,16.62
2017-05-15T08:02:57.795Z,20.57
2017-05-15T08:05:25.386Z,17.63
2017-05-15T08:07:52.866Z,20.23
2017-05-15T08:10:20.350Z,19.55
2017-05-15T08:12:47.913Z,18.83
2017-05-15T08:15:15.471Z,17.92
2017-05-15T08:17:42.929Z,18.92
2017-05-15T08:20:10.423Z,23.18
2017-05-15T08:22:41.041Z,21.95
2017-05-15T08:25:08.545Z,19.75
2017-05-15T08:27:36.045Z,19.05
2017-05-15T08:30:03.507Z,18.22
2017-05-15T08:32:30.983Z,18.37
2017-05-15T08:34:58.443Z,19.68
2017-05-15T08:37:25.947Z,17.87
2017-05-15T08:39:53.394Z,20.47
2017-05-15T08:42:20.846Z,19.83
2017-05-15T08:44:48.298Z,18.07
2017-05-15T08:47:15.765Z,19.23
2017-05-15T08:49:43.197Z,17.64
2017-05-15T08:52:10.654Z,20.55
2017-05-15T08:54:38.109Z,19.42
2017-05-15T08:57:05.575Z,17.00
2017-05-15T08:59:33.033Z,21.18
2017-05-15T09:02:00.470Z,16.10
2017-05-15T09:04:27.901Z,14.16
2017-05-15T09:06:55.366Z,14.08
2017-05-15T09:09:22.807Z,12.60
2017-05-15T09:11:50.262Z,11.68
2017-05-15T09:14:17.693Z,10.66
2017-05-15T09:16:45.131Z,12.96
2017-05-15T09:19:12.574Z,13.00
2017-05-15T09:21:40.035Z,12.72
2017-05-15T09:24:07.465Z,14.14
2017-05-15T09:26:34.901Z,11.38
2017-05-15T09:29:02.341Z,11.34
2017-05-15T09:31:29.779Z,12.32
2017-05-15T09:33:57.209Z,10.96
2017-05-15T09:36:24.642Z,8.80
2017-05-15T09:38:52.098Z,9.68
2017-05-15T09:41:19.527Z,8.50
2017-05-15T09:43:46.957Z,8.72
2017-05-15T09:46:14.379Z,8.72
2017-05-15T09:48:41.818Z,11.42
2017-05-15T09:51:09.241Z,9.14
2017-05-15T09:53:36.665Z,9.46
2017-05-15T09:56:04.102Z,8.00
2017-05-15T09:58:44.230Z,8.52
2017-05-15T10:01:11.654Z,6.22
2017-05-15T10:03:39.091Z,7.32
2017-05-15T10:06:06.518Z,5.42
2017-05-15T10:08:33.943Z,5.62
2017-05-15T10:11:01.374Z,5.76
2017-05-15T10:13:28.803Z,5.26
2017-05-15T10:15:56.241Z,8.20
2017-05-15T10:18:23.661Z,5.60
2017-05-15T10:20:51.121Z,5.86
2017-05-15T10:23:18.550Z,5.94
2017-05-15T10:25:45.979Z,5.36
2017-05-15T10:28:13.403Z,4.90
2017-05-15T10:30:40.843Z,6.18
2017-05-15T10:33:08.285Z,4.74
2017-05-15T10:35:35.723Z,5.94
2017-05-15T10:38:03.149Z,6.10
2017-05-15T10:40:30.581Z,7.02
2017-05-15T10:42:58.007Z,8.08
2017-05-15T10:45:25.455Z,10.06
2017-05-15T10:47:52.882Z,8.70
2017-05-15T10:50:20.311Z,11.86
2017-05-15T10:52:47.741Z,8.88
2017-05-15T10:55:15.178Z,10.26
2017-05-15T10:57:42.630Z,10.30
2017-05-15T11:00:10.057Z,9.28
2017-05-15T11:02:37.503Z,8.60
2017-05-15T11:05:04.946Z,9.58
2017-05-15T11:07:32.378Z,8.00
2017-05-15T11:10:07.370Z,7.52
2017-05-15T11:12:34.794Z,8.12
2017-05-15T11:15:02.225Z,8.42
2017-05-15T11:17:29.853Z,7.36
2017-05-15T11:19:57.509Z,9.14
2017-05-15T11:22:24.949Z,8.42
2017-05-15T11:24:52.392Z,6.34
2017-05-15T11:27:19.839Z,6.98
2017-05-15T11:29:47.270Z,6.70
2017-05-15T11:32:33.755Z,7.34
2017-05-15T11:35:01.287Z,7.26
2017-05-15T11:37:28.754Z,6.40
2017-05-15T11:39:56.245Z,7.30
2017-05-15T11:42:23.733Z,7.74
2017-05-15T11:50:10.775Z,6.86
2017-05-15T11:52:38.223Z,7.80
2017-05-15T11:55:05.809Z,6.20
2017-05-15T11:57:33.512Z,6.72
2017-05-15T12:00:01.074Z,6.08
2017-05-15T12:02:28.550Z,6.14
2017-05-15T12:04:56.147Z,5.38
2017-05-15T12:07:23.674Z,5.10
2017-05-15T12:09:51.142Z,6.40
2017-05-15T12:12:18.728Z,4.54
2017-05-15T12:14:46.488Z,7.90
2017-05-15T12:17:14.812Z,5.40
2017-05-15T12:19:42.274Z,4.36
2017-05-15T12:22:23.138Z,6.72
2017-05-15T12:24:50.566Z,5.02
2017-05-15T12:27:18.099Z,4.88
2017-05-15T12:29:45.679Z,6.30
2017-05-15T12:32:13.322Z,5.14
2017-05-15T12:34:40.887Z,4.42
2017-05-15T12:37:08.310Z,4.62
2017-05-15T12:39:35.879Z,5.46
2017-05-15T12:42:03.606Z,6.00
2017-05-15T12:44:31.062Z,4.52
2017-05-15T12:46:58.551Z,4.66
2017-05-15T12:49:26.003Z,4.40
2017-05-15T12:51:53.557Z,4.24
2017-05-15T12:54:21.026Z,5.10
2017-05-15T12:56:48.473Z,4.58
2017-05-15T12:59:15.897Z,5.76
2017-05-15T13:01:43.363Z,5.16
2017-05-15T13:04:10.785Z,4.42
2017-05-15T13:06:38.220Z,6.86
2017-05-15T13:09:05.649Z,5.60
2017-05-15T13:11:33.121Z,8.34
2017-05-15T13:14:00.552Z,4.44
2017-05-15T13:16:44.698Z,4.20
2017-05-15T13:19:12.119Z,4.76
2017-05-15T13:21:39.552Z,6.42
2017-05-15T13:27:28.033Z,4.70
2017-05-15T13:30:10.631Z,4.34
2017-05-15T13:32:38.519Z,4.18
2017-05-15T13:37:48.552Z,2.98
2017-05-15T13:40:32.545Z,3.60
2017-05-15T13:43:00.563Z,3.74
2017-05-15T13:45:28.410Z,6.12
2017-05-15T13:47:56.187Z,3.84
2017-05-15T13:53:00.189Z,7.32
2017-05-15T13:55:27.835Z,3.50
2017-05-15T13:57:55.850Z,5.68
2017-05-15T14:00:23.321Z,4.18
2017-05-15T14:03:03.472Z,5.12
2017-05-15T14:05:31.277Z,4.28
2017-05-15T14:07:58.874Z,5.32
2017-05-15T14:10:26.748Z,4.42
2017-05-15T14:12:54.629Z,5.68
2017-05-15T14:15:22.228Z,3.78
2017-05-15T14:17:49.969Z,3.50
2017-05-15T14:20:33.563Z,4.08
2017-05-15T14:23:14.415Z,3.42
2017-05-15T14:25:54.482Z,4.74
2017-05-15T14:28:21.925Z,4.18
2017-05-15T14:30:49.376Z,5.70
2017-05-15T14:33:16.832Z,3.62
2017-05-15T14:35:44.266Z,3.12
2017-05-15T14:38:11.686Z,2.90
2017-05-15T14:40:39.124Z,3.18
2017-05-15T14:43:06.562Z,3.54
2017-05-15T14:45:33.994Z,2.92
2017-05-15T14:48:01.427Z,3.06
2017-05-15T14:50:28.858Z,3.70
2017-05-15T14:52:56.298Z,3.04
2017-05-15T14:55:23.771Z,2.92
2017-05-15T14:57:51.209Z,5.70
2017-05-15T15:00:18.663Z,4.76
2017-05-15T15:02:46.102Z,2.70
2017-05-15T15:05:13.578Z,2.12
2017-05-15T15:07:41.011Z,2.44
2017-05-15T15:10:31.416Z,2.68
2017-05-15T15:12:58.886Z,2.38
2017-05-15T15:15:38.919Z,2.68
2017-05-15T15:18:06.377Z,3.50
2017-05-15T15:20:33.970Z,4.38
2017-05-15T15:23:01.424Z,2.96
2017-05-15T15:25:28.878Z,2.70
2017-05-15T15:27:56.396Z,4.96
2017-05-15T15:30:23.877Z,2.94
2017-05-15T15:32:51.444Z,3.18
2017-05-15T15:35:18.910Z,3.32
2017-05-15T15:37:46.459Z,3.80
2017-05-15T15:40:13.970Z,2.36
2017-05-15T15:42:41.496Z,2.18
2017-05-15T15:45:08.958Z,2.50
2017-05-15T15:47:36.458Z,1.74
2017-05-15T15:50:03.973Z,2.02
2017-05-15T15:52:50.734Z,2.82
2017-05-15T15:55:18.203Z,4.68
2017-05-15T15:57:45.653Z,4.76
2017-05-15T16:00:33.840Z,3.00
2017-05-15T16:03:01.273Z,2.08
2017-05-15T16:05:41.427Z,2.58
2017-05-15T16:08:08.865Z,5.70
2017-05-15T16:10:36.291Z,3.08
2017-05-15T16:15:56.840Z,3.56
2017-05-15T16:18:24.346Z,1.80
2017-05-15T16:20:51.747Z,8.48
2017-05-15T16:23:19.286Z,1.90
2017-05-15T16:25:46.761Z,3.44
2017-05-15T16:28:14.186Z,4.38
2017-05-15T16:30:41.630Z,1.70
2017-05-15T16:33:09.215Z,3.86
2017-05-15T16:35:36.669Z,3.36
2017-05-15T16:38:04.190Z,2.70
2017-05-15T16:40:31.701Z,5.84
2017-05-15T16:43:00.695Z,3.26
2017-05-15T16:45:28.198Z,2.52
2017-05-15T16:47:55.701Z,4.54
2017-05-15T16:50:23.498Z,2.86
2017-05-15T16:53:03.418Z,3.14
2017-05-15T16:55:30.857Z,1.96
2017-05-15T16:57:58.292Z,3.12
2017-05-15T17:00:25.734Z,2.16
2017-05-15T17:02:53.168Z,3.74
2017-05-15T17:05:20.607Z,2.04
2017-05-15T17:07:48.042Z,3.36
2017-05-15T17:10:15.486Z,2.40
2017-05-15T17:12:42.911Z,3.78
2017-05-15T17:15:10.546Z,2.24
2017-05-15T17:17:37.998Z,2.56
2017-05-15T17:20:05.437Z,7.02
2017-05-15T17:22:32.863Z,1.90
2017-05-15T17:25:00.310Z,2.20
2017-05-15T17:27:27.746Z,3.00
2017-05-15T17:29:55.188Z,6.26
2017-05-15T17:32:22.614Z,3.06
2017-05-15T17:34:50.046Z,1.62
2017-05-15T17:37:17.488Z,3.28
2017-05-15T17:39:44.921Z,3.06
2017-05-15T17:42:12.363Z,1.76
2017-05-15T17:44:39.797Z,1.66
2017-05-15T17:47:07.260Z,1.70
2017-05-15T17:49:34.714Z,12.30
2017-05-15T17:52:27.744Z,2.32
2017-05-15T17:54:58.390Z,4.20
2017-05-15T17:57:25.826Z,4.72
2017-05-15T17:59:53.261Z,2.90
2017-05-15T18:02:20.695Z,5.76
2017-05-15T18:04:48.126Z,4.02
2017-05-15T18:07:17.501Z,2.60
2017-05-15T18:09:44.930Z,3.04
2017-05-15T18:12:12.350Z,6.68
2017-05-15T18:14:39.783Z,4.12
2017-05-15T18:17:07.217Z,3.84
2017-05-15T18:19:35.586Z,3.90
2017-05-15T18:22:03.014Z,2.96
2017-05-15T18:24:30.850Z,4.14
2017-05-15T18:26:58.272Z,3.70
2017-05-15T18:29:27.683Z,2.88
2017-05-15T18:32:00.865Z,3.18
2017-05-15T18:34:28.290Z,3.50
2017-05-15T18:36:55.877Z,3.92
2017-05-15T18:39:23.341Z,7.08
2017-05-15T18:41:51.230Z,3.60
2017-05-15T18:47:17.514Z,4.02
2017-05-15T18:49:44.984Z,3.38
2017-05-15T18:52:12.410Z,5.74
2017-05-15T18:54:39.866Z,3.52
2017-05-15T18:57:07.326Z,3.84
2017-05-15T18:59:34.755Z,3.68
2017-05-15T19:02:02.274Z,4.18
2017-05-15T19:04:29.722Z,3.78
2017-05-15T19:07:03.334Z,3.78
2017-05-15T19:09:30.794Z,3.72
2017-05-15T19:11:58.229Z,4.36
2017-05-15T19:14:25.734Z,4.06
2017-05-15T19:16:53.177Z,4.06
2017-05-15T19:19:20.631Z,4.02
2017-05-15T19:21:48.060Z,5.88
2017-05-15T19:24:15.509Z,3.50
2017-05-15T19:26:42.960Z,4.00
2017-05-15T19:29:10.454Z,4.88
2017-05-15T19:31:37.909Z,7.98
2017-05-15T19:34:05.358Z,4.36
2017-05-15T19:36:32.806Z,5.26
2017-05-15T19:39:00.323Z,4.60
2017-05-15T19:41:27.821Z,4.16
2017-05-15T19:43:55.268Z,4.28
2017-05-15T19:46:23.287Z,3.87
2017-05-15T19:48:51.058Z,5.36
2017-05-15T19:51:18.566Z,5.00
2017-05-15T19:53:46.116Z,4.80
2017-05-15T19:56:13.573Z,4.60
2017-05-15T19:58:41.046Z,6.12
2017-05-15T20:01:09.571Z,17.56
2017-05-15T20:03:37.620Z,19.72
2017-05-15T20:06:05.455Z,12.37
2017-05-15T20:08:33.156Z,10.87
2017-05-15T20:11:00.791Z,8.65
2017-05-15T20:13:28.683Z,7.58
2017-05-15T20:15:56.759Z,9.93
2017-05-15T20:18:24.475Z,6.50
2017-05-15T20:20:51.915Z,5.35
2017-05-15T20:23:20.360Z,5.80
2017-05-15T20:25:48.179Z,7.10
2017-05-15T20:28:16.264Z,6.03
2017-05-15T20:30:44.279Z,6.95
2017-05-15T20:33:13.063Z,7.08
2017-05-15T20:35:41.081Z,5.88
2017-05-15T20:38:10.042Z,7.23
2017-05-15T20:40:39.959Z,6.85
2017-05-15T20:43:10.818Z,6.58
2017-05-15T20:45:39.615Z,6.47
2017-05-15T20:48:07.186Z,5.78
2017-05-15T20:50:35.751Z,6.12
2017-05-15T20:53:03.422Z,7.18
2017-05-15T20:55:30.895Z,6.63
2017-05-15T20:57:58.419Z,6.88
2017-05-15T21:00:26.228Z,6.45
2017-05-15T21:02:53.839Z,10.42
2017-05-15T21:05:21.458Z,7.85
2017-05-15T21:07:48.980Z,7.48
2017-05-15T21:10:16.742Z,6.90
2017-05-15T21:12:44.322Z,7.67
2017-05-15T21:15:13.030Z,8.20
2017-05-15T21:17:40.604Z,8.40
2017-05-15T21:20:08.106Z,7.58
2017-05-15T21:22:35.618Z,9.68
2017-05-15T21:25:03.157Z,8.23
2017-05-15T21:27:30.661Z,7.78
2017-05-15T21:29:58.175Z,8.10
2017-05-15T21:32:25.903Z,7.75
2017-05-15T21:34:53.923Z,7.07
2017-05-15T21:37:21.548Z,7.87
2017-05-15T21:39:49.102Z,7.83
2017-05-15T21:42:16.634Z,6.90
2017-05-15T21:44:44.152Z,6.90
2017-05-15T21:47:12.407Z,6.88
2017-05-15T21:49:40.468Z,9.38
2017-05-15T21:52:09.451Z,8.23
2017-05-15T21:54:38.127Z,5.27
2017-05-15T21:57:05.863Z,6.30
2017-05-15T21:59:34.333Z,8.30
2017-05-15T22:02:03.047Z,6.27
2017-05-15T22:04:31.837Z,7.27
2017-05-15T22:06:59.626Z,7.97
2017-05-15T22:09:41.166Z,8.42
2017-05-15T22:12:09.801Z,7.85
2017-05-15T22:14:38.278Z,6.00
2017-05-15T22:17:06.962Z,6.40
2017-05-15T22:19:36.874Z,6.60
2017-05-15T22:22:05.003Z,6.32
2017-05-15T22:24:34.159Z,6.12
2017-05-15T22:27:02.948Z,5.95
2017-05-15T22:29:30.635Z,6.23
2017-05-15T22:31:59.492Z,6.97
2017-05-15T22:34:27.160Z,5.88
2017-05-15T22:36:55.788Z,6.43
2017-05-15T22:39:23.378Z,5.85
2017-05-15T22:41:51.154Z,7.78
2017-05-15T22:44:18.964Z,5.55
2017-05-15T22:46:46.665Z,6.52
2017-05-15T22:49:17.225Z,5.68
2017-05-15T22:51:48.021Z,6.27
2017-05-15T22:54:16.760Z,6.40
2017-05-15T22:56:47.793Z,7.20
2017-05-15T22:59:15.563Z,6.40
2017-05-15T23:01:43.102Z,6.47
2017-05-15T23:04:11.961Z,5.58
2017-05-15T23:06:41.176Z,6.08
2017-05-15T23:09:09.101Z,9.05
2017-05-15T23:11:36.611Z,8.23
2017-05-15T23:14:04.092Z,7.95
2017-05-15T23:16:31.785Z,5.77
2017-05-15T23:18:59.359Z,6.58
2017-05-15T23:21:27.287Z,4.92
2017-05-15T23:26:46.972Z,5.27
2017-05-15T23:29:14.766Z,5.07
2017-05-15T23:31:51.159Z,4.90
2017-05-15T23:34:19.657Z,5.27
2017-05-15T23:36:49.887Z,7.45
2017-05-15T23:39:17.544Z,5.40
2017-05-15T23:41:45.289Z,5.60
2017-05-15T23:44:12.977Z,5.98
2017-05-15T23:46:40.680Z,5.68
2017-05-15T23:51:43.951Z,5.53
2017-05-15T23:54:20.373Z,5.60
2017-05-15T23:56:47.993Z,6.82
